sensor_id;sensor_type;location;lat;lon;timestamp;pressure;altitude;pressure_sealevel;temperature;humidity
36748;BME280;22716;51.556;5.080;2023-04-24T00:01:12;99307.94;;;10.10;100.00
36748;BME280;22716;51.556;5.080;2023-04-24T00:03:41;99307.94;;;10.10;100.00
36748;BME280;22716;51.556;5.080;2023-04-24T00:06:09;99304.47;;;10.10;100.00
36748;BME280;22716;51.556;5.080;2023-04-24T00:08:41;99304.44;;;10.11;100.00
36748;BME280;22716;51.556;5.080;2023-04-24T00:11:09;99303.84;;;10.03;100.00
36748;BME280;22716;51.556;5.080;2023-04-24T00:13:39;99321.09;;;10.09;100.00
36748;BME280;22716;51.556;5.080;2023-04-24T00:16:08;99316.06;;;10.03;100.00
36748;BME280;22716;51.556;5.080;2023-04-24T00:18:37;99314.31;;;10.03;100.00
36748;BME280;22716;51.556;5.080;2023-04-24T00:21:07;99308.22;;;10.03;100.00
36748;BME280;22716;51.556;5.080;2023-04-24T00:23:35;99316.94;;;10.02;100.00
36748;BME280;22716;51.556;5.080;2023-04-24T00:26:07;99320.44;;;10.02;100.00
36748;BME280;22716;51.556;5.080;2023-04-24T00:28:35;99321.38;;;10.00;100.00
36748;BME280;22716;51.556;5.080;2023-04-24T00:31:04;99319.53;;;10.03;100.00
36748;BME280;22716;51.556;5.080;2023-04-24T00:33:33;99302.41;;;9.93;100.00
36748;BME280;22716;51.556;5.080;2023-04-24T00:36:02;99309.97;;;10.02;100.00
36748;BME280;22716;51.556;5.080;2023-04-24T00:38:31;99304.16;;;9.93;100.00
36748;BME280;22716;51.556;5.080;2023-04-24T00:41:00;99315.28;;;9.99;100.00
36748;BME280;22716;51.556;5.080;2023-04-24T00:43:31;99323.94;;;10.01;100.00
36748;BME280;22716;51.556;5.080;2023-04-24T00:46:00;99301.72;;;9.88;100.00
36748;BME280;22716;51.556;5.080;2023-04-24T00:48:30;99317.91;;;9.99;100.00
36748;BME280;22716;51.556;5.080;2023-04-24T00:51:00;99316.19;;;9.98;100.00
36748;BME280;22716;51.556;5.080;2023-04-24T00:53:28;99303.47;;;9.88;100.00
36748;BME280;22716;51.556;5.080;2023-04-24T00:55:57;99313.72;;;9.94;100.00
36748;BME280;22716;51.556;5.080;2023-04-24T00:58:26;99305.97;;;9.91;100.00
36748;BME280;22716;51.556;5.080;2023-04-24T01:00:59;99324.31;;;9.89;100.00
36748;BME280;22716;51.556;5.080;2023-04-24T01:03:33;99271.19;;;9.61;100.00
36748;BME280;22716;51.556;5.080;2023-04-24T01:06:03;99328.72;;;9.89;100.00
36748;BME280;22716;51.556;5.080;2023-04-24T01:08:32;99317.59;;;9.82;100.00
36748;BME280;22716;51.556;5.080;2023-04-24T01:11:03;99322.72;;;9.85;100.00
36748;BME280;22716;51.556;5.080;2023-04-24T01:13:33;99316.63;;;9.85;100.00
36748;BME280;22716;51.556;5.080;2023-04-24T01:16:05;99321.81;;;9.86;100.00
36748;BME280;22716;51.556;5.080;2023-04-24T01:18:34;99319.25;;;9.85;100.00
36748;BME280;22716;51.556;5.080;2023-04-24T01:21:04;99316.63;;;9.85;100.00
36748;BME280;22716;51.556;5.080;2023-04-24T01:23:35;99315.00;;;9.81;100.00
36748;BME280;22716;51.556;5.080;2023-04-24T01:26:04;99314.19;;;9.80;100.00
36748;BME280;22716;51.556;5.080;2023-04-24T01:28:33;99317.78;;;9.76;100.00
36748;BME280;22716;51.556;5.080;2023-04-24T01:31:02;99321.38;;;9.72;100.00
36748;BME280;22716;51.556;5.080;2023-04-24T01:33:32;99320.66;;;9.69;100.00
36748;BME280;22716;51.556;5.080;2023-04-24T01:36:01;99300.09;;;9.56;100.00
36748;BME280;22716;51.556;5.080;2023-04-24T01:38:30;99323.34;;;9.66;100.00
36748;BME280;22716;51.556;5.080;2023-04-24T01:41:01;99317.16;;;9.68;100.00
36748;BME280;22716;51.556;5.080;2023-04-24T01:43:30;99322.44;;;9.67;100.00
36748;BME280;22716;51.556;5.080;2023-04-24T01:46:00;99327.75;;;9.64;100.00
36748;BME280;22716;51.556;5.080;2023-04-24T01:48:29;99327.91;;;9.59;100.00
36748;BME280;22716;51.556;5.080;2023-04-24T01:50:59;99325.19;;;9.62;100.00
36748;BME280;22716;51.556;5.080;2023-04-24T01:53:28;99330.56;;;9.57;100.00
36748;BME280;22716;51.556;5.080;2023-04-24T01:55:57;99325.28;;;9.59;100.00
36748;BME280;22716;51.556;5.080;2023-04-24T01:58:29;99321.75;;;9.60;100.00
36748;BME280;22716;51.556;5.080;2023-04-24T02:00:59;99320.94;;;9.60;100.00
36748;BME280;22716;51.556;5.080;2023-04-24T02:03:28;99328.00;;;9.56;100.00
36748;BME280;22716;51.556;5.080;2023-04-24T02:05:57;99324.78;;;9.48;100.00
36748;BME280;22716;51.556;5.080;2023-04-24T02:08:26;99337.44;;;9.60;100.00
36748;BME280;22716;51.556;5.080;2023-04-24T02:10:54;99341.94;;;9.56;100.00
36748;BME280;22716;51.556;5.080;2023-04-24T02:13:23;99338.50;;;9.54;100.00
36748;BME280;22716;51.556;5.080;2023-04-24T02:15:54;99337.63;;;9.54;100.00
36748;BME280;22716;51.556;5.080;2023-04-24T02:18:23;99337.69;;;9.52;100.00
36748;BME280;22716;51.556;5.080;2023-04-24T02:20:52;99331.84;;;9.44;100.00
36748;BME280;22716;51.556;5.080;2023-04-24T02:23:21;99325.13;;;9.36;100.00
36748;BME280;22716;51.556;5.080;2023-04-24T02:25:49;99342.25;;;9.46;100.00
36748;BME280;22716;51.556;5.080;2023-04-24T02:28:19;99340.56;;;9.43;100.00
36748;BME280;22716;51.556;5.080;2023-04-24T02:30:47;99337.16;;;9.41;100.00
36748;BME280;22716;51.556;5.080;2023-04-24T02:33:19;99331.97;;;9.40;100.00
36748;BME280;22716;51.556;5.080;2023-04-24T02:35:47;99317.31;;;9.34;100.00
36748;BME280;22716;51.556;5.080;2023-04-24T02:38:16;99319.31;;;9.26;100.00
36748;BME280;22716;51.556;5.080;2023-04-24T02:40:45;99334.66;;;9.37;100.00
36748;BME280;22716;51.556;5.080;2023-04-24T02:43:13;99331.34;;;9.32;100.00
36748;BME280;22716;51.556;5.080;2023-04-24T02:45:42;99314.94;;;9.27;100.00
36748;BME280;22716;51.556;5.080;2023-04-24T02:48:11;99325.31;;;9.30;100.00
36748;BME280;22716;51.556;5.080;2023-04-24T02:50:43;99331.44;;;9.29;100.00
36748;BME280;22716;51.556;5.080;2023-04-24T02:53:11;99314.88;;;9.28;100.00
36748;BME280;22716;51.556;5.080;2023-04-24T02:55:40;99321.03;;;9.27;100.00
36748;BME280;22716;51.556;5.080;2023-04-24T02:58:09;99316.72;;;9.25;100.00
36748;BME280;22716;51.556;5.080;2023-04-24T03:00:38;99322.00;;;9.23;100.00
36748;BME280;22716;51.556;5.080;2023-04-24T03:03:07;99311.56;;;9.23;100.00
36748;BME280;22716;51.556;5.080;2023-04-24T03:05:36;99312.34;;;9.27;100.00
36748;BME280;22716;51.556;5.080;2023-04-24T03:08:07;99313.28;;;9.24;100.00
36748;BME280;22716;51.556;5.080;2023-04-24T03:10:36;99306.47;;;9.19;100.00
36748;BME280;22716;51.556;5.080;2023-04-24T03:13:05;99302.06;;;9.21;100.00
36748;BME280;22716;51.556;5.080;2023-04-24T03:15:34;99313.28;;;9.24;100.00
36748;BME280;22716;51.556;5.080;2023-04-24T03:18:03;99309.91;;;9.19;100.00
36748;BME280;22716;51.556;5.080;2023-04-24T03:20:31;99304.75;;;9.18;100.00
36748;BME280;22716;51.556;5.080;2023-04-24T03:23:02;99298.03;;;9.09;100.00
36748;BME280;22716;51.556;5.080;2023-04-24T03:25:34;99311.78;;;9.16;100.00
36748;BME280;22716;51.556;5.080;2023-04-24T03:28:02;99300.41;;;9.17;100.00
36748;BME280;22716;51.556;5.080;2023-04-24T03:30:31;99279.03;;;9.04;100.00
36748;BME280;22716;51.556;5.080;2023-04-24T03:33:00;99302.91;;;9.21;100.00
36748;BME280;22716;51.556;5.080;2023-04-24T03:35:29;99297.88;;;9.15;100.00
36748;BME280;22716;51.556;5.080;2023-04-24T03:37:58;99296.84;;;9.19;100.00
36748;BME280;22716;51.556;5.080;2023-04-24T03:40:26;99302.09;;;9.19;100.00
36748;BME280;22716;51.556;5.080;2023-04-24T03:42:58;99290.81;;;9.19;100.00
36748;BME280;22716;51.556;5.080;2023-04-24T03:45:27;99302.25;;;9.13;100.00
36748;BME280;22716;51.556;5.080;2023-04-24T03:47:55;99304.78;;;9.16;100.00
36748;BME280;22716;51.556;5.080;2023-04-24T03:50:24;99301.38;;;9.14;100.00
36748;BME280;22716;51.556;5.080;2023-04-24T03:52:54;99295.34;;;9.12;100.00
36748;BME280;22716;51.556;5.080;2023-04-24T03:55:23;99300.69;;;9.08;100.00
36748;BME280;22716;51.556;5.080;2023-04-24T03:57:52;99301.53;;;9.08;100.00
36748;BME280;22716;51.556;5.080;2023-04-24T04:00:23;99287.59;;;9.09;100.00
36748;BME280;22716;51.556;5.080;2023-04-24T04:02:53;99295.59;;;9.03;100.00
36748;BME280;22716;51.556;5.080;2023-04-24T04:05:21;99303.34;;;9.06;100.00
36748;BME280;22716;51.556;5.080;2023-04-24T04:07:50;99299.94;;;9.04;100.00
36748;BME280;22716;51.556;5.080;2023-04-24T04:10:19;99303.25;;;9.09;100.00
36748;BME280;22716;51.556;5.080;2023-04-24T04:12:48;99248.47;;;8.77;100.00
36748;BME280;22716;51.556;5.080;2023-04-24T04:15:17;99310.25;;;9.09;100.00
36748;BME280;22716;51.556;5.080;2023-04-24T04:17:48;99306.69;;;9.11;100.00
36748;BME280;22716;51.556;5.080;2023-04-24T04:20:17;99317.09;;;9.13;100.00
36748;BME280;22716;51.556;5.080;2023-04-24T04:22:45;99322.31;;;9.13;100.00
36748;BME280;22716;51.556;5.080;2023-04-24T04:25:14;99318.88;;;9.11;100.00
36748;BME280;22716;51.556;5.080;2023-04-24T04:27:45;99330.44;;;9.04;100.00
36748;BME280;22716;51.556;5.080;2023-04-24T04:30:14;99335.69;;;9.02;100.00
36748;BME280;22716;51.556;5.080;2023-04-24T04:32:43;99343.50;;;9.02;100.00
36748;BME280;22716;51.556;5.080;2023-04-24T04:35:15;99345.25;;;9.03;100.00
36748;BME280;22716;51.556;5.080;2023-04-24T04:37:44;99342.66;;;9.01;100.00
36748;BME280;22716;51.556;5.080;2023-04-24T04:40:12;99336.75;;;8.95;100.00
36748;BME280;22716;51.556;5.080;2023-04-24T04:42:41;99343.66;;;8.97;100.00
36748;BME280;22716;51.556;5.080;2023-04-24T04:45:11;99349.81;;;8.95;100.00
36748;BME280;22716;51.556;5.080;2023-04-24T04:47:42;99351.59;;;8.93;100.00
36748;BME280;22716;51.556;5.080;2023-04-24T04:50:11;99339.56;;;8.87;100.00
36748;BME280;22716;51.556;5.080;2023-04-24T04:52:42;99341.13;;;8.94;100.00
36748;BME280;22716;51.556;5.080;2023-04-24T04:55:11;99346.22;;;8.99;100.00
36748;BME280;22716;51.556;5.080;2023-04-24T04:57:40;99352.22;;;9.02;100.00
36748;BME280;22716;51.556;5.080;2023-04-24T05:00:11;99349.69;;;8.99;100.00
36748;BME280;22716;51.556;5.080;2023-04-24T05:02:41;99358.56;;;8.94;100.00
36748;BME280;22716;51.556;5.080;2023-04-24T05:05:10;99372.56;;;8.91;100.00
36748;BME280;22716;51.556;5.080;2023-04-24T05:07:39;99358.00;;;8.83;100.00
36748;BME280;22716;51.556;5.080;2023-04-24T05:10:10;99354.81;;;8.72;100.00
36748;BME280;22716;51.556;5.080;2023-04-24T05:12:39;99371.31;;;8.72;100.00
36748;BME280;22716;51.556;5.080;2023-04-24T05:15:09;99372.22;;;8.71;100.00
36748;BME280;22716;51.556;5.080;2023-04-24T05:17:38;99380.94;;;8.70;100.00
36748;BME280;22716;51.556;5.080;2023-04-24T05:20:10;99382.75;;;8.68;100.00
36748;BME280;22716;51.556;5.080;2023-04-24T05:22:40;99379.34;;;8.65;100.00
36748;BME280;22716;51.556;5.080;2023-04-24T05:25:11;99396.78;;;8.64;100.00
36748;BME280;22716;51.556;5.080;2023-04-24T05:27:41;99384.69;;;8.60;100.00
36748;BME280;22716;51.556;5.080;2023-04-24T05:30:11;99388.31;;;8.55;100.00
36748;BME280;22716;51.556;5.080;2023-04-24T05:32:41;99400.47;;;8.56;100.00
36748;BME280;22716;51.556;5.080;2023-04-24T05:35:10;99411.78;;;8.56;100.00
36748;BME280;22716;51.556;5.080;2023-04-24T05:37:39;99408.34;;;8.54;100.00
36748;BME280;22716;51.556;5.080;2023-04-24T05:40:12;99415.41;;;8.51;100.00
36748;BME280;22716;51.556;5.080;2023-04-24T05:42:40;99420.66;;;8.49;100.00
36748;BME280;22716;51.556;5.080;2023-04-24T05:45:09;99432.84;;;8.49;100.00
36748;BME280;22716;51.556;5.080;2023-04-24T05:47:42;99432.91;;;8.45;100.00
36748;BME280;22716;51.556;5.080;2023-04-24T05:50:12;99435.50;;;8.47;100.00
36748;BME280;22716;51.556;5.080;2023-04-24T05:52:40;99437.31;;;8.43;100.00
36748;BME280;22716;51.556;5.080;2023-04-24T05:55:12;99451.19;;;8.45;100.00
36748;BME280;22716;51.556;5.080;2023-04-24T05:57:43;99449.72;;;8.34;100.00
36748;BME280;22716;51.556;5.080;2023-04-24T06:00:13;99461.75;;;8.41;100.00
36748;BME280;22716;51.556;5.080;2023-04-24T06:02:43;99467.91;;;8.38;100.00
36748;BME280;22716;51.556;5.080;2023-04-24T06:05:12;99483.56;;;8.37;100.00
36748;BME280;22716;51.556;5.080;2023-04-24T06:07:41;99494.94;;;8.34;100.00
36748;BME280;22716;51.556;5.080;2023-04-24T06:10:13;99491.53;;;8.32;100.00
36748;BME280;22716;51.556;5.080;2023-04-24T06:12:41;99499.44;;;8.26;100.00
36748;BME280;22716;51.556;5.080;2023-04-24T06:15:10;99507.34;;;8.23;100.00
36748;BME280;22716;51.556;5.080;2023-04-24T06:17:39;99519.47;;;8.27;100.00
36748;BME280;22716;51.556;5.080;2023-04-24T06:20:09;99526.44;;;8.25;100.00
36748;BME280;22716;51.556;5.080;2023-04-24T06:22:38;99536.81;;;8.28;100.00
36748;BME280;22716;51.556;5.080;2023-04-24T06:25:08;99538.56;;;8.29;100.00
36748;BME280;22716;51.556;5.080;2023-04-24T06:27:40;99553.34;;;8.29;100.00
36748;BME280;22716;51.556;5.080;2023-04-24T06:30:10;99560.34;;;8.25;100.00
36748;BME280;22716;51.556;5.080;2023-04-24T06:32:39;99587.25;;;8.30;100.00
36748;BME280;22716;51.556;5.080;2023-04-24T06:35:08;99591.63;;;8.30;100.00
36748;BME280;22716;51.556;5.080;2023-04-24T06:37:38;99593.41;;;8.25;100.00
36748;BME280;22716;51.556;5.080;2023-04-24T06:40:09;99602.16;;;8.24;100.00
36748;BME280;22716;51.556;5.080;2023-04-24T06:42:40;99605.63;;;8.23;100.00
36748;BME280;22716;51.556;5.080;2023-04-24T06:45:10;99609.06;;;8.25;100.00
36748;BME280;22716;51.556;5.080;2023-04-24T06:47:39;99606.53;;;8.22;100.00
36748;BME280;22716;51.556;5.080;2023-04-24T06:50:09;99621.25;;;8.27;100.00
36748;BME280;22716;51.556;5.080;2023-04-24T06:52:38;99624.66;;;8.29;100.00
36748;BME280;22716;51.556;5.080;2023-04-24T06:55:08;99642.06;;;8.30;100.00
36748;BME280;22716;51.556;5.080;2023-04-24T06:57:36;99651.59;;;8.31;100.00
36748;BME280;22716;51.556;5.080;2023-04-24T07:00:10;99641.25;;;8.25;100.00
36748;BME280;22716;51.556;5.080;2023-04-24T07:02:39;99649.03;;;8.28;100.00
36748;BME280;22716;51.556;5.080;2023-04-24T07:05:08;99659.47;;;8.30;100.00
36748;BME280;22716;51.556;5.080;2023-04-24T07:07:38;99656.88;;;8.27;100.00
36748;BME280;22716;51.556;5.080;2023-04-24T07:10:08;99673.44;;;8.27;100.00
36748;BME280;22716;51.556;5.080;2023-04-24T07:12:37;99665.75;;;8.18;100.00
36748;BME280;22716;51.556;5.080;2023-04-24T07:15:10;99681.28;;;8.24;100.00
36748;BME280;22716;51.556;5.080;2023-04-24T07:17:39;99695.38;;;8.14;100.00
36748;BME280;22716;51.556;5.080;2023-04-24T07:20:10;99703.16;;;8.19;100.00
36748;BME280;22716;51.556;5.080;2023-04-24T07:22:42;99707.44;;;8.20;100.00
36748;BME280;22716;51.556;5.080;2023-04-24T07:25:11;99719.59;;;8.22;100.00
36748;BME280;22716;51.556;5.080;2023-04-24T07:27:40;99728.31;;;8.21;100.00
36748;BME280;22716;51.556;5.080;2023-04-24T07:30:12;99727.41;;;8.22;100.00
36748;BME280;22716;51.556;5.080;2023-04-24T07:32:41;99727.44;;;8.21;100.00
36748;BME280;22716;51.556;5.080;2023-04-24T07:35:10;99736.09;;;8.24;100.00
36748;BME280;22716;51.556;5.080;2023-04-24T07:37:38;99745.63;;;8.25;100.00
36748;BME280;22716;51.556;5.080;2023-04-24T07:40:11;99738.66;;;8.26;100.00
36748;BME280;22716;51.556;5.080;2023-04-24T07:42:40;99740.44;;;8.22;100.00
36748;BME280;22716;51.556;5.080;2023-04-24T07:45:12;99762.97;;;8.29;100.00
36748;BME280;22716;51.556;5.080;2023-04-24T07:47:41;99766.47;;;8.28;100.00
36748;BME280;22716;51.556;5.080;2023-04-24T07:50:11;99768.16;;;8.31;100.00
36748;BME280;22716;51.556;5.080;2023-04-24T07:52:40;99775.97;;;8.32;100.00
36748;BME280;22716;51.556;5.080;2023-04-24T07:55:09;99776.81;;;8.34;100.00
36748;BME280;22716;51.556;5.080;2023-04-24T07:57:37;99783.72;;;8.37;100.00
36748;BME280;22716;51.556;5.080;2023-04-24T08:00:08;99789.03;;;8.32;100.00
36748;BME280;22716;51.556;5.080;2023-04-24T08:02:39;99787.25;;;8.34;100.00
36748;BME280;22716;51.556;5.080;2023-04-24T08:05:08;99803.81;;;8.33;100.00
36748;BME280;22716;51.556;5.080;2023-04-24T08:07:38;99803.88;;;8.30;100.00
36748;BME280;22716;51.556;5.080;2023-04-24T08:10:10;99799.44;;;8.34;100.00
36748;BME280;22716;51.556;5.080;2023-04-24T08:12:39;99821.97;;;8.38;100.00
36748;BME280;22716;51.556;5.080;2023-04-24T08:15:09;99818.44;;;8.42;100.00
36748;BME280;22716;51.556;5.080;2023-04-24T08:17:40;99826.19;;;8.47;100.00
36748;BME280;22716;51.556;5.080;2023-04-24T08:20:12;99827.00;;;8.49;100.00
36748;BME280;22716;51.556;5.080;2023-04-24T08:22:42;99811.44;;;8.44;100.00
36748;BME280;22716;51.556;5.080;2023-04-24T08:25:12;99831.28;;;8.54;100.00
36748;BME280;22716;51.556;5.080;2023-04-24T08:27:41;99848.59;;;8.58;100.00
36748;BME280;22716;51.556;5.080;2023-04-24T08:30:11;99844.94;;;8.67;100.00
36748;BME280;22716;51.556;5.080;2023-04-24T08:32:43;99863.94;;;8.75;100.00
36748;BME280;22716;51.556;5.080;2023-04-24T08:35:11;99868.31;;;8.74;100.00
36748;BME280;22716;51.556;5.080;2023-04-24T08:37:40;99883.19;;;8.69;100.00
36748;BME280;22716;51.556;5.080;2023-04-24T08:40:14;99879.75;;;8.69;100.00
36748;BME280;22716;51.556;5.080;2023-04-24T08:42:44;99879.00;;;8.61;100.00
36748;BME280;22716;51.556;5.080;2023-04-24T08:45:13;99884.28;;;8.58;100.00
36748;BME280;22716;51.556;5.080;2023-04-24T08:47:44;99882.63;;;8.54;100.00
36748;BME280;22716;51.556;5.080;2023-04-24T08:50:14;99893.94;;;8.54;100.00
36748;BME280;22716;51.556;5.080;2023-04-24T08:52:43;99885.19;;;8.57;100.00
36748;BME280;22716;51.556;5.080;2023-04-24T08:55:12;99901.63;;;8.60;100.00
36748;BME280;22716;51.556;5.080;2023-04-24T08:57:43;99899.84;;;8.64;100.00
36748;BME280;22716;51.556;5.080;2023-04-24T09:00:17;99908.44;;;8.70;100.00
36748;BME280;22716;51.556;5.080;2023-04-24T09:02:50;99904.84;;;8.76;100.00
36748;BME280;22716;51.556;5.080;2023-04-24T09:05:21;99905.66;;;8.78;100.00
36748;BME280;22716;51.556;5.080;2023-04-24T09:07:53;99912.84;;;8.68;100.00
36748;BME280;22716;51.556;5.080;2023-04-24T09:10:24;99924.19;;;8.66;100.00
36748;BME280;22716;51.556;5.080;2023-04-24T09:12:56;99930.34;;;8.60;100.00
36748;BME280;22716;51.556;5.080;2023-04-24T09:15:27;99942.56;;;8.60;100.00
36748;BME280;22716;51.556;5.080;2023-04-24T09:18:00;99939.22;;;8.52;100.00
36748;BME280;22716;51.556;5.080;2023-04-24T09:20:29;99928.06;;;8.42;100.00
36748;BME280;22716;51.556;5.080;2023-04-24T09:22:58;99954.03;;;8.50;100.00
36748;BME280;22716;51.556;5.080;2023-04-24T09:25:32;99936.72;;;8.44;100.00
36748;BME280;22716;51.556;5.080;2023-04-24T09:28:02;99959.94;;;8.61;100.00
36748;BME280;22716;51.556;5.080;2023-04-24T09:30:32;99961.59;;;8.66;100.00
36748;BME280;22716;51.556;5.080;2023-04-24T09:33:15;99962.31;;;8.77;100.00
36748;BME280;22716;51.556;5.080;2023-04-24T09:35:49;99973.31;;;8.94;100.00
36748;BME280;22716;51.556;5.080;2023-04-24T09:38:18;99980.91;;;9.08;100.00
36748;BME280;22716;51.556;5.080;2023-04-24T09:40:47;99977.19;;;9.20;100.00
36748;BME280;22716;51.556;5.080;2023-04-24T09:43:15;99983.03;;;9.34;100.00
36748;BME280;22716;51.556;5.080;2023-04-24T09:45:44;99969.75;;;9.44;100.00
36748;BME280;22716;51.556;5.080;2023-04-24T09:48:15;99984.16;;;9.65;100.00
36748;BME280;22716;51.556;5.080;2023-04-24T09:50:46;99978.81;;;9.70;100.00
36748;BME280;22716;51.556;5.080;2023-04-24T09:53:15;99986.97;;;9.54;100.00
36748;BME280;22716;51.556;5.080;2023-04-24T09:55:45;99997.38;;;9.59;100.00
36748;BME280;22716;51.556;5.080;2023-04-24T09:58:16;99997.44;;;9.54;100.00
36748;BME280;22716;51.556;5.080;2023-04-24T10:00:45;99993.25;;;9.46;100.00
36748;BME280;22716;51.556;5.080;2023-04-24T10:03:18;100013.34;;;9.44;100.00
36748;BME280;22716;51.556;5.080;2023-04-24T10:05:47;100027.56;;;9.29;100.00
36748;BME280;22716;51.556;5.080;2023-04-24T10:08:15;100014.81;;;9.11;100.00
36748;BME280;22716;51.556;5.080;2023-04-24T10:10:45;100035.72;;;9.11;100.00
36748;BME280;22716;51.556;5.080;2023-04-24T10:13:14;100015.22;;;8.88;100.00
36748;BME280;22716;51.556;5.080;2023-04-24T10:15:43;100031.66;;;8.95;100.00
36748;BME280;22716;51.556;5.080;2023-04-24T10:18:12;100030.69;;;8.99;100.00
36748;BME280;22716;51.556;5.080;2023-04-24T10:20:44;100040.22;;;9.01;100.00
36748;BME280;22716;51.556;5.080;2023-04-24T10:23:14;100033.16;;;9.10;100.00
36748;BME280;22716;51.556;5.080;2023-04-24T10:25:45;100039.16;;;9.13;100.00
36748;BME280;22716;51.556;5.080;2023-04-24T10:28:14;100039.84;;;9.24;100.00
36748;BME280;22716;51.556;5.080;2023-04-24T10:30:43;100038.78;;;9.36;100.00
36748;BME280;22716;51.556;5.080;2023-04-24T10:33:13;100036.75;;;9.50;100.00
36748;BME280;22716;51.556;5.080;2023-04-24T10:35:47;100049.56;;;9.64;100.00
36748;BME280;22716;51.556;5.080;2023-04-24T10:38:22;100050.38;;;9.69;100.00
36748;BME280;22716;51.556;5.080;2023-04-24T10:40:57;100054.63;;;9.73;100.00
36748;BME280;22716;51.556;5.080;2023-04-24T10:43:35;100045.97;;;9.69;100.00
36748;BME280;22716;51.556;5.080;2023-04-24T10:46:06;100056.41;;;9.71;100.00
36748;BME280;22716;51.556;5.080;2023-04-24T10:48:36;100059.16;;;9.65;100.00
36748;BME280;22716;51.556;5.080;2023-04-24T10:51:16;100063.56;;;9.63;100.00
36748;BME280;22716;51.556;5.080;2023-04-24T10:53:45;100073.31;;;9.53;100.00
36748;BME280;22716;51.556;5.080;2023-04-24T10:56:16;100068.19;;;9.47;100.00
36748;BME280;22716;51.556;5.080;2023-04-24T10:58:50;100083.91;;;9.45;100.00
36748;BME280;22716;51.556;5.080;2023-04-24T11:01:29;100085.72;;;9.42;100.00
36748;BME280;22716;51.556;5.080;2023-04-24T11:04:00;100090.41;;;9.23;100.00
36748;BME280;22716;51.556;5.080;2023-04-24T11:06:33;100092.25;;;9.18;100.00
36748;BME280;22716;51.556;5.080;2023-04-24T11:09:03;100091.38;;;9.18;100.00
36748;BME280;22716;51.556;5.080;2023-04-24T11:11:34;100084.19;;;9.29;100.00
36748;BME280;22716;51.556;5.080;2023-04-24T11:14:04;100081.53;;;9.32;100.00
36748;BME280;22716;51.556;5.080;2023-04-24T11:16:38;100077.22;;;9.28;100.00
36748;BME280;22716;51.556;5.080;2023-04-24T11:19:09;100079.03;;;9.26;100.00
36748;BME280;22716;51.556;5.080;2023-04-24T11:21:46;100095.31;;;9.41;100.00
36748;BME280;22716;51.556;5.080;2023-04-24T11:24:29;100094.25;;;9.53;100.00
36748;BME280;22716;51.556;5.080;2023-04-24T11:27:04;100103.56;;;9.66;100.00
36748;BME280;22716;51.556;5.080;2023-04-24T11:29:42;100116.53;;;9.74;100.00
36748;BME280;22716;51.556;5.080;2023-04-24T11:32:22;100115.44;;;9.84;100.00
36748;BME280;22716;51.556;5.080;2023-04-24T11:34:53;100117.13;;;9.88;100.00
36748;BME280;22716;51.556;5.080;2023-04-24T11:37:27;100118.69;;;9.98;100.00
36748;BME280;22716;51.556;5.080;2023-04-24T11:39:57;100126.38;;;10.04;100.00
36748;BME280;22716;51.556;5.080;2023-04-24T11:42:27;100115.16;;;9.99;100.00
36748;BME280;22716;51.556;5.080;2023-04-24T11:44:56;100129.91;;;10.03;100.00
36748;BME280;22716;51.556;5.080;2023-04-24T11:47:29;100129.72;;;10.15;100.00
36748;BME280;22716;51.556;5.080;2023-04-24T11:49:59;100135.59;;;10.25;100.00
36748;BME280;22716;51.556;5.080;2023-04-24T11:52:32;100150.31;;;10.32;100.00
36748;BME280;22716;51.556;5.080;2023-04-24T11:55:01;100139.91;;;10.29;100.00
36748;BME280;22716;51.556;5.080;2023-04-24T11:57:31;100147.91;;;10.21;100.00
36748;BME280;22716;51.556;5.080;2023-04-24T12:00:04;100144.50;;;10.16;100.00
36748;BME280;22716;51.556;5.080;2023-04-24T12:02:33;100156.72;;;10.17;100.00
36748;BME280;22716;51.556;5.080;2023-04-24T12:05:04;100160.94;;;10.24;100.00
36748;BME280;22716;51.556;5.080;2023-04-24T12:07:40;100164.31;;;10.29;100.00
36748;BME280;22716;51.556;5.080;2023-04-24T12:10:11;100158.28;;;10.27;100.00
36748;BME280;22716;51.556;5.080;2023-04-24T12:12:40;100161.72;;;10.28;100.00
36748;BME280;22716;51.556;5.080;2023-04-24T12:15:11;100165.09;;;10.34;100.00
36748;BME280;22716;51.556;5.080;2023-04-24T12:17:41;100152.09;;;10.30;100.00
36748;BME280;22716;51.556;5.080;2023-04-24T12:20:12;100146.81;;;10.33;100.00
36748;BME280;22716;51.556;5.080;2023-04-24T12:22:49;100167.63;;;10.39;100.00
36748;BME280;22716;51.556;5.080;2023-04-24T12:25:21;100178.81;;;10.45;100.00
36748;BME280;22716;51.556;5.080;2023-04-24T12:27:53;100173.00;;;10.74;100.00
36748;BME280;22716;51.556;5.080;2023-04-24T12:30:26;100177.19;;;10.81;100.00
36748;BME280;22716;51.556;5.080;2023-04-24T12:32:58;100177.84;;;10.91;100.00
36748;BME280;22716;51.556;5.080;2023-04-24T12:35:29;100178.06;;;10.82;100.00
36748;BME280;22716;51.556;5.080;2023-04-24T12:38:08;100183.69;;;10.63;100.00
36748;BME280;22716;51.556;5.080;2023-04-24T12:40:39;100194.41;;;10.51;100.00
36748;BME280;22716;51.556;5.080;2023-04-24T12:43:13;100190.34;;;10.37;100.00
36748;BME280;22716;51.556;5.080;2023-04-24T12:45:43;100204.53;;;10.27;100.00
36748;BME280;22716;51.556;5.080;2023-04-24T12:48:12;100208.91;;;10.25;100.00
36748;BME280;22716;51.556;5.080;2023-04-24T12:50:43;100213.56;;;10.07;100.00
36748;BME280;22716;51.556;5.080;2023-04-24T12:53:14;100213.69;;;10.01;100.00
36748;BME280;22716;51.556;5.080;2023-04-24T12:55:43;100201.63;;;9.93;100.00
36748;BME280;22716;51.556;5.080;2023-04-24T12:58:18;100211.06;;;10.01;100.00
36748;BME280;22716;51.556;5.080;2023-04-24T13:00:49;100210.09;;;10.07;100.00
36748;BME280;22716;51.556;5.080;2023-04-24T13:03:19;100214.25;;;10.20;100.00
36748;BME280;22716;51.556;5.080;2023-04-24T13:05:48;100209.47;;;10.42;100.00
36748;BME280;22716;51.556;5.080;2023-04-24T13:08:19;100213.25;;;10.68;100.00
36748;BME280;22716;51.556;5.080;2023-04-24T13:10:49;100221.41;;;10.96;100.00